sensor_id;sensor_type;location;lat;lon;timestamp;temperature;humidity
6978;DHT22;3529;53.244;10.414;2022-07-19T00:00:31;15.10;99.90
6978;DHT22;3529;53.244;10.414;2022-07-19T00:02:57;15.10;99.90
6978;DHT22;3529;53.244;10.414;2022-07-19T00:05:22;15.10;99.90
6978;DHT22;3529;53.244;10.414;2022-07-19T00:07:48;15.10;99.90
6978;DHT22;3529;53.244;10.414;2022-07-19T00:10:16;15.00;99.90
6978;DHT22;3529;53.244;10.414;2022-07-19T00:12:42;15.00;99.90
6978;DHT22;3529;53.244;10.414;2022-07-19T00:15:10;14.90;99.90
6978;DHT22;3529;53.244;10.414;2022-07-19T00:17:43;14.90;99.90
6978;DHT22;3529;53.244;10.414;2022-07-19T00:20:12;14.90;99.90
6978;DHT22;3529;53.244;10.414;2022-07-19T00:22:38;14.80;99.90
6978;DHT22;3529;53.244;10.414;2022-07-19T00:25:04;14.80;99.90
6978;DHT22;3529;53.244;10.414;2022-07-19T00:27:30;14.70;99.90
6978;DHT22;3529;53.244;10.414;2022-07-19T00:29:56;14.70;99.90
6978;DHT22;3529;53.244;10.414;2022-07-19T00:32:22;14.60;99.90
6978;DHT22;3529;53.244;10.414;2022-07-19T00:34:47;14.60;99.90
6978;DHT22;3529;53.244;10.414;2022-07-19T00:37:13;14.50;99.90
6978;DHT22;3529;53.244;10.414;2022-07-19T00:39:38;14.40;99.90
6978;DHT22;3529;53.244;10.414;2022-07-19T00:42:04;14.40;99.90
6978;DHT22;3529;53.244;10.414;2022-07-19T00:44:30;14.40;99.90
6978;DHT22;3529;53.244;10.414;2022-07-19T00:46:56;14.40;99.90
6978;DHT22;3529;53.244;10.414;2022-07-19T00:49:22;14.30;99.90
6978;DHT22;3529;53.244;10.414;2022-07-19T00:51:50;14.30;99.90
6978;DHT22;3529;53.244;10.414;2022-07-19T00:54:19;14.30;99.90
6978;DHT22;3529;53.244;10.414;2022-07-19T00:56:48;14.20;99.90
6978;DHT22;3529;53.244;10.414;2022-07-19T00:59:14;14.20;99.90
6978;DHT22;3529;53.244;10.414;2022-07-19T01:01:40;14.20;99.90
6978;DHT22;3529;53.244;10.414;2022-07-19T01:04:05;14.10;99.90
6978;DHT22;3529;53.244;10.414;2022-07-19T01:06:31;14.10;99.90
6978;DHT22;3529;53.244;10.414;2022-07-19T01:08:57;14.10;99.90
6978;DHT22;3529;53.244;10.414;2022-07-19T01:11:23;14.00;99.90
6978;DHT22;3529;53.244;10.414;2022-07-19T01:13:49;14.00;99.90
6978;DHT22;3529;53.244;10.414;2022-07-19T01:16:15;14.00;99.90
6978;DHT22;3529;53.244;10.414;2022-07-19T01:18:40;14.00;99.90
6978;DHT22;3529;53.244;10.414;2022-07-19T01:21:07;14.00;99.90
6978;DHT22;3529;53.244;10.414;2022-07-19T01:23:33;14.00;99.90
6978;DHT22;3529;53.244;10.414;2022-07-19T01:25:59;13.90;99.90
6978;DHT22;3529;53.244;10.414;2022-07-19T01:28:24;13.90;99.90
6978;DHT22;3529;53.244;10.414;2022-07-19T01:30:50;13.90;99.90
6978;DHT22;3529;53.244;10.414;2022-07-19T01:33:18;13.80;99.90
6978;DHT22;3529;53.244;10.414;2022-07-19T01:35:44;13.80;99.90
6978;DHT22;3529;53.244;10.414;2022-07-19T01:38:09;13.80;99.90
6978;DHT22;3529;53.244;10.414;2022-07-19T01:40:35;13.70;99.90
6978;DHT22;3529;53.244;10.414;2022-07-19T01:43:01;13.70;99.90
6978;DHT22;3529;53.244;10.414;2022-07-19T01:45:27;13.70;99.90
6978;DHT22;3529;53.244;10.414;2022-07-19T01:47:52;13.60;99.90
6978;DHT22;3529;53.244;10.414;2022-07-19T01:50:18;13.60;99.90
6978;DHT22;3529;53.244;10.414;2022-07-19T01:52:44;13.50;99.90
6978;DHT22;3529;53.244;10.414;2022-07-19T01:55:10;13.50;99.90
6978;DHT22;3529;53.244;10.414;2022-07-19T01:57:36;13.50;99.90
6978;DHT22;3529;53.244;10.414;2022-07-19T02:00:03;13.40;99.90
6978;DHT22;3529;53.244;10.414;2022-07-19T02:02:29;13.40;99.90
6978;DHT22;3529;53.244;10.414;2022-07-19T02:04:54;13.40;99.90
6978;DHT22;3529;53.244;10.414;2022-07-19T02:07:20;13.40;99.90
6978;DHT22;3529;53.244;10.414;2022-07-19T02:09:46;13.30;99.90
6978;DHT22;3529;53.244;10.414;2022-07-19T02:12:11;13.30;99.90
6978;DHT22;3529;53.244;10.414;2022-07-19T02:14:37;13.30;99.90
6978;DHT22;3529;53.244;10.414;2022-07-19T02:17:02;13.30;99.90
6978;DHT22;3529;53.244;10.414;2022-07-19T02:19:28;13.30;99.90
6978;DHT22;3529;53.244;10.414;2022-07-19T02:21:53;13.30;99.90
6978;DHT22;3529;53.244;10.414;2022-07-19T02:24:19;13.20;99.90
6978;DHT22;3529;53.244;10.414;2022-07-19T02:26:45;13.20;99.90
6978;DHT22;3529;53.244;10.414;2022-07-19T02:29:10;13.20;99.90
6978;DHT22;3529;53.244;10.414;2022-07-19T02:31:36;13.20;99.90
6978;DHT22;3529;53.244;10.414;2022-07-19T02:34:02;13.10;99.90
6978;DHT22;3529;53.244;10.414;2022-07-19T02:36:27;13.10;99.90
6978;DHT22;3529;53.244;10.414;2022-07-19T02:38:53;13.10;99.90
6978;DHT22;3529;53.244;10.414;2022-07-19T02:41:19;13.00;99.90
6978;DHT22;3529;53.244;10.414;2022-07-19T02:43:44;13.00;99.90
6978;DHT22;3529;53.244;10.414;2022-07-19T02:46:10;13.00;99.90
6978;DHT22;3529;53.244;10.414;2022-07-19T02:48:36;13.00;99.90
6978;DHT22;3529;53.244;10.414;2022-07-19T02:51:01;13.00;99.90
6978;DHT22;3529;53.244;10.414;2022-07-19T02:53:27;12.90;99.90
6978;DHT22;3529;53.244;10.414;2022-07-19T02:55:52;12.90;99.90
6978;DHT22;3529;53.244;10.414;2022-07-19T02:58:19;12.90;99.90
6978;DHT22;3529;53.244;10.414;2022-07-19T03:00:44;12.80;99.90
6978;DHT22;3529;53.244;10.414;2022-07-19T03:03:10;12.80;99.90
6978;DHT22;3529;53.244;10.414;2022-07-19T03:05:55;12.80;99.90
6978;DHT22;3529;53.244;10.414;2022-07-19T03:08:22;12.80;99.90
6978;DHT22;3529;53.244;10.414;2022-07-19T03:10:47;12.70;99.90
6978;DHT22;3529;53.244;10.414;2022-07-19T03:13:13;12.70;99.90
6978;DHT22;3529;53.244;10.414;2022-07-19T03:15:38;12.70;99.90
6978;DHT22;3529;53.244;10.414;2022-07-19T03:18:04;12.70;99.90
6978;DHT22;3529;53.244;10.414;2022-07-19T03:20:30;12.60;99.90
6978;DHT22;3529;53.244;10.414;2022-07-19T03:22:55;12.60;99.90
6978;DHT22;3529;53.244;10.414;2022-07-19T03:25:21;12.60;99.90
6978;DHT22;3529;53.244;10.414;2022-07-19T03:27:47;12.60;99.90
6978;DHT22;3529;53.244;10.414;2022-07-19T03:30:13;12.60;99.90
6978;DHT22;3529;53.244;10.414;2022-07-19T03:32:39;12.60;99.90
6978;DHT22;3529;53.244;10.414;2022-07-19T03:35:05;12.60;99.90
6978;DHT22;3529;53.244;10.414;2022-07-19T03:37:31;12.60;99.90
6978;DHT22;3529;53.244;10.414;2022-07-19T03:39:57;12.60;99.90
6978;DHT22;3529;53.244;10.414;2022-07-19T03:42:22;12.60;99.90
6978;DHT22;3529;53.244;10.414;2022-07-19T03:44:48;12.60;99.90
6978;DHT22;3529;53.244;10.414;2022-07-19T03:47:13;12.50;99.90
6978;DHT22;3529;53.244;10.414;2022-07-19T03:49:39;12.50;99.90
6978;DHT22;3529;53.244;10.414;2022-07-19T03:52:04;12.50;99.90
6978;DHT22;3529;53.244;10.414;2022-07-19T03:54:30;12.50;99.90
6978;DHT22;3529;53.244;10.414;2022-07-19T03:56:56;12.60;99.90
6978;DHT22;3529;53.244;10.414;2022-07-19T03:59:21;12.60;99.90
6978;DHT22;3529;53.244;10.414;2022-07-19T04:01:48;12.60;99.90
6978;DHT22;3529;53.244;10.414;2022-07-19T04:04:14;12.60;99.90
6978;DHT22;3529;53.244;10.414;2022-07-19T04:06:40;12.70;99.90
6978;DHT22;3529;53.244;10.414;2022-07-19T04:09:05;12.70;99.90
6978;DHT22;3529;53.244;10.414;2022-07-19T04:11:31;12.70;99.90
6978;DHT22;3529;53.244;10.414;2022-07-19T04:13:57;12.80;99.90
6978;DHT22;3529;53.244;10.414;2022-07-19T04:16:22;13.00;99.90
6978;DHT22;3529;53.244;10.414;2022-07-19T04:18:48;13.10;99.90
6978;DHT22;3529;53.244;10.414;2022-07-19T04:21:14;13.30;99.90
6978;DHT22;3529;53.244;10.414;2022-07-19T04:23:39;13.40;99.90
6978;DHT22;3529;53.244;10.414;2022-07-19T04:26:05;13.50;99.90
6978;DHT22;3529;53.244;10.414;2022-07-19T04:28:31;13.70;99.90
6978;DHT22;3529;53.244;10.414;2022-07-19T04:30:56;14.10;99.90
6978;DHT22;3529;53.244;10.414;2022-07-19T04:33:22;14.40;99.90
6978;DHT22;3529;53.244;10.414;2022-07-19T04:35:48;14.70;99.90
6978;DHT22;3529;53.244;10.414;2022-07-19T04:38:14;15.00;99.90
6978;DHT22;3529;53.244;10.414;2022-07-19T04:40:39;15.40;99.90
6978;DHT22;3529;53.244;10.414;2022-07-19T04:43:05;15.80;99.90
6978;DHT22;3529;53.244;10.414;2022-07-19T04:45:31;16.30;99.90
6978;DHT22;3529;53.244;10.414;2022-07-19T04:47:56;16.70;99.90
6978;DHT22;3529;53.244;10.414;2022-07-19T04:50:22;17.20;99.90
6978;DHT22;3529;53.244;10.414;2022-07-19T04:52:48;17.70;99.90
6978;DHT22;3529;53.244;10.414;2022-07-19T04:55:13;18.10;99.90
6978;DHT22;3529;53.244;10.414;2022-07-19T04:57:40;18.40;99.90
6978;DHT22;3529;53.244;10.414;2022-07-19T05:00:08;18.70;99.90
6978;DHT22;3529;53.244;10.414;2022-07-19T05:02:37;18.80;99.90
6978;DHT22;3529;53.244;10.414;2022-07-19T05:05:04;19.00;99.90
6978;DHT22;3529;53.244;10.414;2022-07-19T05:07:30;19.20;99.90
6978;DHT22;3529;53.244;10.414;2022-07-19T05:09:56;19.20;99.90
6978;DHT22;3529;53.244;10.414;2022-07-19T05:12:21;19.30;99.90
6978;DHT22;3529;53.244;10.414;2022-07-19T05:14:47;19.30;99.90
6978;DHT22;3529;53.244;10.414;2022-07-19T05:17:14;19.30;99.90
6978;DHT22;3529;53.244;10.414;2022-07-19T05:19:40;19.40;99.90
6978;DHT22;3529;53.244;10.414;2022-07-19T05:22:06;19.70;99.90
6978;DHT22;3529;53.244;10.414;2022-07-19T05:24:31;19.90;99.90
6978;DHT22;3529;53.244;10.414;2022-07-19T05:26:57;20.20;99.90
6978;DHT22;3529;53.244;10.414;2022-07-19T05:29:22;20.50;99.90
6978;DHT22;3529;53.244;10.414;2022-07-19T05:31:48;20.40;99.90
6978;DHT22;3529;53.244;10.414;2022-07-19T05:34:14;20.10;99.90
6978;DHT22;3529;53.244;10.414;2022-07-19T05:36:39;19.70;99.90
6978;DHT22;3529;53.244;10.414;2022-07-19T05:39:05;19.40;99.90
6978;DHT22;3529;53.244;10.414;2022-07-19T05:41:31;19.10;99.90
6978;DHT22;3529;53.244;10.414;2022-07-19T05:43:56;18.90;99.90
6978;DHT22;3529;53.244;10.414;2022-07-19T05:46:22;18.70;99.90
6978;DHT22;3529;53.244;10.414;2022-07-19T05:48:48;18.50;99.90
6978;DHT22;3529;53.244;10.414;2022-07-19T05:51:14;18.50;99.90
6978;DHT22;3529;53.244;10.414;2022-07-19T05:53:40;18.40;99.90
6978;DHT22;3529;53.244;10.414;2022-07-19T05:56:06;18.30;99.90
6978;DHT22;3529;53.244;10.414;2022-07-19T05:58:32;18.30;99.90
6978;DHT22;3529;53.244;10.414;2022-07-19T06:00:57;18.30;99.90
6978;DHT22;3529;53.244;10.414;2022-07-19T06:03:42;18.30;99.90
6978;DHT22;3529;53.244;10.414;2022-07-19T06:06:07;18.30;99.90
6978;DHT22;3529;53.244;10.414;2022-07-19T06:08:33;18.40;99.90
6978;DHT22;3529;53.244;10.414;2022-07-19T06:10:59;18.40;99.90
6978;DHT22;3529;53.244;10.414;2022-07-19T06:13:25;18.50;99.90
6978;DHT22;3529;53.244;10.414;2022-07-19T06:15:50;18.60;99.90
6978;DHT22;3529;53.244;10.414;2022-07-19T06:18:16;18.60;99.90
6978;DHT22;3529;53.244;10.414;2022-07-19T06:20:42;18.70;99.90
6978;DHT22;3529;53.244;10.414;2022-07-19T06:23:08;18.80;99.90
6978;DHT22;3529;53.244;10.414;2022-07-19T06:25:33;19.00;99.90
6978;DHT22;3529;53.244;10.414;2022-07-19T06:27:59;19.10;99.90
6978;DHT22;3529;53.244;10.414;2022-07-19T06:30:24;19.20;99.90
6978;DHT22;3529;53.244;10.414;2022-07-19T06:32:50;19.30;99.90
6978;DHT22;3529;53.244;10.414;2022-07-19T06:35:16;19.40;99.90
6978;DHT22;3529;53.244;10.414;2022-07-19T06:37:41;19.50;99.90
6978;DHT22;3529;53.244;10.414;2022-07-19T06:40:07;19.60;99.90
6978;DHT22;3529;53.244;10.414;2022-07-19T06:42:33;19.60;99.90
6978;DHT22;3529;53.244;10.414;2022-07-19T06:44:59;19.80;99.90
6978;DHT22;3529;53.244;10.414;2022-07-19T06:47:28;19.90;99.90
6978;DHT22;3529;53.244;10.414;2022-07-19T06:49:53;20.00;99.90
6978;DHT22;3529;53.244;10.414;2022-07-19T06:52:19;20.20;99.90
6978;DHT22;3529;53.244;10.414;2022-07-19T06:54:44;20.40;99.90
6978;DHT22;3529;53.244;10.414;2022-07-19T06:57:10;20.60;99.90
6978;DHT22;3529;53.244;10.414;2022-07-19T06:59:36;20.70;99.90
6978;DHT22;3529;53.244;10.414;2022-07-19T07:02:02;20.80;99.90
6978;DHT22;3529;53.244;10.414;2022-07-19T07:04:29;21.10;99.90
6978;DHT22;3529;53.244;10.414;2022-07-19T07:06:55;21.30;99.90
6978;DHT22;3529;53.244;10.414;2022-07-19T07:09:20;21.80;99.90
6978;DHT22;3529;53.244;10.414;2022-07-19T07:11:46;22.30;99.90
6978;DHT22;3529;53.244;10.414;2022-07-19T07:14:12;22.60;99.90
6978;DHT22;3529;53.244;10.414;2022-07-19T07:16:37;22.90;99.90
6978;DHT22;3529;53.244;10.414;2022-07-19T07:19:03;23.20;99.90
6978;DHT22;3529;53.244;10.414;2022-07-19T07:21:28;23.60;99.90
6978;DHT22;3529;53.244;10.414;2022-07-19T07:23:55;24.10;99.90
6978;DHT22;3529;53.244;10.414;2022-07-19T07:26:21;25.00;99.90
6978;DHT22;3529;53.244;10.414;2022-07-19T07:28:46;26.50;99.90
6978;DHT22;3529;53.244;10.414;2022-07-19T07:31:12;28.00;99.90
6978;DHT22;3529;53.244;10.414;2022-07-19T07:33:37;29.30;99.90
6978;DHT22;3529;53.244;10.414;2022-07-19T07:36:03;30.30;99.90
6978;DHT22;3529;53.244;10.414;2022-07-19T07:38:29;31.10;99.90
6978;DHT22;3529;53.244;10.414;2022-07-19T07:40:54;32.00;99.90
6978;DHT22;3529;53.244;10.414;2022-07-19T07:43:21;32.90;99.90
6978;DHT22;3529;53.244;10.414;2022-07-19T07:45:47;33.60;99.90
6978;DHT22;3529;53.244;10.414;2022-07-19T07:48:12;34.40;99.90
6978;DHT22;3529;53.244;10.414;2022-07-19T07:50:38;35.10;99.90
6978;DHT22;3529;53.244;10.414;2022-07-19T07:53:03;35.60;99.90
6978;DHT22;3529;53.244;10.414;2022-07-19T07:55:29;36.10;99.10
6978;DHT22;3529;53.244;10.414;2022-07-19T07:57:55;36.40;92.80
6978;DHT22;3529;53.244;10.414;2022-07-19T08:00:20;36.60;91.40
6978;DHT22;3529;53.244;10.414;2022-07-19T08:02:47;36.70;88.90
6978;DHT22;3529;53.244;10.414;2022-07-19T08:05:14;36.90;86.90
6978;DHT22;3529;53.244;10.414;2022-07-19T08:07:40;37.10;85.10
6978;DHT22;3529;53.244;10.414;2022-07-19T08:10:07;37.40;83.50
6978;DHT22;3529;53.244;10.414;2022-07-19T08:12:33;37.60;81.70
6978;DHT22;3529;53.244;10.414;2022-07-19T08:14:59;37.70;79.80
6978;DHT22;3529;53.244;10.414;2022-07-19T08:17:24;37.40;76.10
6978;DHT22;3529;53.244;10.414;2022-07-19T08:19:50;37.20;77.50
6978;DHT22;3529;53.244;10.414;2022-07-19T08:22:17;36.60;74.80
6978;DHT22;3529;53.244;10.414;2022-07-19T08:24:44;35.60;76.50
6978;DHT22;3529;53.244;10.414;2022-07-19T08:27:10;34.60;73.60
6978;DHT22;3529;53.244;10.414;2022-07-19T08:29:37;33.50;75.80
6978;DHT22;3529;53.244;10.414;2022-07-19T08:32:03;33.10;76.00
6978;DHT22;3529;53.244;10.414;2022-07-19T08:34:28;32.90;76.70
6978;DHT22;3529;53.244;10.414;2022-07-19T08:36:54;32.80;76.60
6978;DHT22;3529;53.244;10.414;2022-07-19T08:39:19;32.80;76.20
6978;DHT22;3529;53.244;10.414;2022-07-19T08:41:45;32.60;74.30
6978;DHT22;3529;53.244;10.414;2022-07-19T08:44:12;31.90;75.30
6978;DHT22;3529;53.244;10.414;2022-07-19T08:46:40;31.40;76.40
6978;DHT22;3529;53.244;10.414;2022-07-19T08:49:08;30.70;78.00
6978;DHT22;3529;53.244;10.414;2022-07-19T08:51:34;30.20;78.30
6978;DHT22;3529;53.244;10.414;2022-07-19T08:54:00;29.80;77.80
6978;DHT22;3529;53.244;10.414;2022-07-19T08:56:27;29.60;80.80
6978;DHT22;3529;53.244;10.414;2022-07-19T08:59:11;29.40;78.60
6978;DHT22;3529;53.244;10.414;2022-07-19T09:01:37;29.40;80.30
6978;DHT22;3529;53.244;10.414;2022-07-19T09:06:41;29.40;80.90
6978;DHT22;3529;53.244;10.414;2022-07-19T09:09:07;29.60;82.60
6978;DHT22;3529;53.244;10.414;2022-07-19T09:11:42;30.20;82.60
6978;DHT22;3529;53.244;10.414;2022-07-19T09:14:22;31.70;82.00
6978;DHT22;3529;53.244;10.414;2022-07-19T09:17:04;33.30;79.40
6978;DHT22;3529;53.244;10.414;2022-07-19T09:19:37;34.90;77.20
6978;DHT22;3529;53.244;10.414;2022-07-19T09:22:16;36.20;75.30
6978;DHT22;3529;53.244;10.414;2022-07-19T09:24:48;37.30;73.40
6978;DHT22;3529;53.244;10.414;2022-07-19T09:27:19;38.10;72.80
6978;DHT22;3529;53.244;10.414;2022-07-19T09:29:52;38.80;69.60
6978;DHT22;3529;53.244;10.414;2022-07-19T09:32:20;39.30;70.30
6978;DHT22;3529;53.244;10.414;2022-07-19T09:34:54;39.80;67.90
6978;DHT22;3529;53.244;10.414;2022-07-19T09:37:22;40.10;69.10
6978;DHT22;3529;53.244;10.414;2022-07-19T09:39:51;40.40;66.00
6978;DHT22;3529;53.244;10.414;2022-07-19T09:42:21;40.50;62.30
6978;DHT22;3529;53.244;10.414;2022-07-19T09:45:00;40.50;64.50
6978;DHT22;3529;53.244;10.414;2022-07-19T09:47:36;40.60;63.00
6978;DHT22;3529;53.244;10.414;2022-07-19T09:50:05;40.70;60.50
6978;DHT22;3529;53.244;10.414;2022-07-19T09:52:33;40.70;61.40
6978;DHT22;3529;53.244;10.414;2022-07-19T09:55:01;41.00;60.40
6978;DHT22;3529;53.244;10.414;2022-07-19T09:57:27;41.20;60.90
6978;DHT22;3529;53.244;10.414;2022-07-19T09:59:54;41.50;60.40
6978;DHT22;3529;53.244;10.414;2022-07-19T10:02:23;41.80;59.40
6978;DHT22;3529;53.244;10.414;2022-07-19T10:04:50;42.00;58.40
6978;DHT22;3529;53.244;10.414;2022-07-19T10:07:17;42.00;56.20
6978;DHT22;3529;53.244;10.414;2022-07-19T10:09:44;42.30;55.50
6978;DHT22;3529;53.244;10.414;2022-07-19T10:12:11;42.50;55.80
6978;DHT22;3529;53.244;10.414;2022-07-19T10:14:37;42.50;54.50
6978;DHT22;3529;53.244;10.414;2022-07-19T10:19:43;42.70;55.60
6978;DHT22;3529;53.244;10.414;2022-07-19T10:22:11;42.80;54.80
6978;DHT22;3529;53.244;10.414;2022-07-19T10:24:55;42.80;53.60
6978;DHT22;3529;53.244;10.414;2022-07-19T10:32:40;42.60;52.10
6978;DHT22;3529;53.244;10.414;2022-07-19T10:35:31;42.70;53.40
6978;DHT22;3529;53.244;10.414;2022-07-19T10:43:12;42.80;52.90
6978;DHT22;3529;53.244;10.414;2022-07-19T10:45:40;42.80;55.30
6978;DHT22;3529;53.244;10.414;2022-07-19T10:48:12;42.70;51.70
6978;DHT22;3529;53.244;10.414;2022-07-19T10:53:22;42.50;51.50
6978;DHT22;3529;53.244;10.414;2022-07-19T10:56:35;42.20;52.80
6978;DHT22;3529;53.244;10.414;2022-07-19T10:59:12;42.80;52.70
6978;DHT22;3529;53.244;10.414;2022-07-19T11:01:52;42.80;50.30
6978;DHT22;3529;53.244;10.414;2022-07-19T11:04:30;42.80;50.40
6978;DHT22;3529;53.244;10.414;2022-07-19T11:07:17;42.80;49.50
6978;DHT22;3529;53.244;10.414;2022-07-19T11:09:54;42.70;49.40
6978;DHT22;3529;53.244;10.414;2022-07-19T11:12:26;42.60;50.50
6978;DHT22;3529;53.244;10.414;2022-07-19T11:14:53;42.40;50.00
6978;DHT22;3529;53.244;10.414;2022-07-19T11:17:18;42.10;48.80
6978;DHT22;3529;53.244;10.414;2022-07-19T11:20:07;41.70;48.20
6978;DHT22;3529;53.244;10.414;2022-07-19T11:22:35;41.10;51.40
6978;DHT22;3529;53.244;10.414;2022-07-19T11:25:03;40.70;50.90
6978;DHT22;3529;53.244;10.414;2022-07-19T11:27:30;40.40;52.00
6978;DHT22;3529;53.244;10.414;2022-07-19T11:29:57;40.00;52.20
6978;DHT22;3529;53.244;10.414;2022-07-19T11:32:23;39.70;50.80
6978;DHT22;3529;53.244;10.414;2022-07-19T11:35:05;39.30;50.50
6978;DHT22;3529;53.244;10.414;2022-07-19T11:37:39;38.80;52.50
6978;DHT22;3529;53.244;10.414;2022-07-19T11:40:06;38.50;52.30
6978;DHT22;3529;53.244;10.414;2022-07-19T11:42:42;38.40;50.80
6978;DHT22;3529;53.244;10.414;2022-07-19T11:45:19;38.30;51.80
6978;DHT22;3529;53.244;10.414;2022-07-19T11:47:48;38.20;53.30
6978;DHT22;3529;53.244;10.414;2022-07-19T11:50:16;38.00;53.50
6978;DHT22;3529;53.244;10.414;2022-07-19T11:52:59;38.00;52.20
6978;DHT22;3529;53.244;10.414;2022-07-19T11:55:34;37.90;51.00
6978;DHT22;3529;53.244;10.414;2022-07-19T11:58:05;37.90;52.60
6978;DHT22;3529;53.244;10.414;2022-07-19T12:00:33;37.70;54.30
6978;DHT22;3529;53.244;10.414;2022-07-19T12:03:05;37.60;51.40
6978;DHT22;3529;53.244;10.414;2022-07-19T12:05:34;37.80;52.30
6978;DHT22;3529;53.244;10.414;2022-07-19T12:08:06;38.00;51.60
6978;DHT22;3529;53.244;10.414;2022-07-19T12:10:43;38.30;51.70
6978;DHT22;3529;53.244;10.414;2022-07-19T12:13:14;38.60;52.40
6978;DHT22;3529;53.244;10.414;2022-07-19T12:18:10;38.70;49.90
6978;DHT22;3529;53.244;10.414;2022-07-19T12:20:38;38.80;52.30
6978;DHT22;3529;53.244;10.414;2022-07-19T12:23:15;38.90;50.50
6978;DHT22;3529;53.244;10.414;2022-07-19T12:25:42;38.90;51.80
6978;DHT22;3529;53.244;10.414;2022-07-19T12:28:08;38.80;49.80
6978;DHT22;3529;53.244;10.414;2022-07-19T12:30:34;38.80;50.10
6978;DHT22;3529;53.244;10.414;2022-07-19T12:35:43;38.70;50.20
6978;DHT22;3529;53.244;10.414;2022-07-19T12:38:10;38.50;50.60
6978;DHT22;3529;53.244;10.414;2022-07-19T12:40:38;38.50;52.70
6978;DHT22;3529;53.244;10.414;2022-07-19T12:43:04;38.50;52.00
6978;DHT22;3529;53.244;10.414;2022-07-19T12:45:32;38.60;50.70
6978;DHT22;3529;53.244;10.414;2022-07-19T12:47:59;38.70;49.50
6978;DHT22;3529;53.244;10.414;2022-07-19T12:50:35;38.80;51.50
6978;DHT22;3529;53.244;10.414;2022-07-19T12:53:04;38.80;49.30
6978;DHT22;3529;53.244;10.414;2022-07-19T12:55:31;38.90;48.20
6978;DHT22;3529;53.244;10.414;2022-07-19T12:57:58;38.80;50.50
6978;DHT22;3529;53.244;10.414;2022-07-19T13:00:25;38.90;50.30
6978;DHT22;3529;53.244;10.414;2022-07-19T13:02:52;39.00;50.00
6978;DHT22;3529;53.244;10.414;2022-07-19T13:05:20;39.10;51.10
6978;DHT22;3529;53.244;10.414;2022-07-19T13:07:45;39.20;48.70
6978;DHT22;3529;53.244;10.414;2022-07-19T13:10:12;39.10;50.30
6978;DHT22;3529;53.244;10.414;2022-07-19T13:12:37;39.10;50.30
6978;DHT22;3529;53.244;10.414;2022-07-19T13:15:04;39.30;47.80
6978;DHT22;3529;53.244;10.414;2022-07-19T13:17:30;39.40;50.00
6978;DHT22;3529;53.244;10.414;2022-07-19T13:19:56;39.40;52.80
6978;DHT22;3529;53.244;10.414;2022-07-19T13:22:22;39.50;50.80
6978;DHT22;3529;53.244;10.414;2022-07-19T13:24:48;39.40;50.60
6978;DHT22;3529;53.244;10.414;2022-07-19T13:27:14;39.10;49.20
6978;DHT22;3529;53.244;10.414;2022-07-19T13:29:41;39.00;52.20
6978;DHT22;3529;53.244;10.414;2022-07-19T13:32:07;38.90;50.20
6978;DHT22;3529;53.244;10.414;2022-07-19T13:34:33;38.80;51.40
6978;DHT22;3529;53.244;10.414;2022-07-19T13:36:59;38.80;52.60
6978;DHT22;3529;53.244;10.414;2022-07-19T13:39:25;38.80;49.60
6978;DHT22;3529;53.244;10.414;2022-07-19T13:41:51;38.80;51.50
6978;DHT22;3529;53.244;10.414;2022-07-19T13:44:17;38.90;48.20
6978;DHT22;3529;53.244;10.414;2022-07-19T13:46:43;38.90;51.10
6978;DHT22;3529;53.244;10.414;2022-07-19T13:49:08;38.70;48.90
6978;DHT22;3529;53.244;10.414;2022-07-19T13:51:34;38.50;50.00
6978;DHT22;3529;53.244;10.414;2022-07-19T13:53:59;38.30;49.80
6978;DHT22;3529;53.244;10.414;2022-07-19T13:56:25;38.20;49.50
6978;DHT22;3529;53.244;10.414;2022-07-19T13:58:51;38.10;49.10
6978;DHT22;3529;53.244;10.414;2022-07-19T14:01:17;38.00;48.20
6978;DHT22;3529;53.244;10.414;2022-07-19T14:03:43;38.00;48.30
6978;DHT22;3529;53.244;10.414;2022-07-19T14:06:08;38.00;50.80
6978;DHT22;3529;53.244;10.414;2022-07-19T14:08:34;38.10;48.80
6978;DHT22;3529;53.244;10.414;2022-07-19T14:11:01;38.00;48.50
6978;DHT22;3529;53.244;10.414;2022-07-19T14:13:27;38.00;50.90
6978;DHT22;3529;53.244;10.414;2022-07-19T14:15:54;38.20;50.20
6978;DHT22;3529;53.244;10.414;2022-07-19T14:18:20;38.30;50.50
6978;DHT22;3529;53.244;10.414;2022-07-19T14:20:45;38.40;48.00
6978;DHT22;3529;53.244;10.414;2022-07-19T14:23:12;38.40;49.40
6978;DHT22;3529;53.244;10.414;2022-07-19T14:25:39;38.40;50.50
6978;DHT22;3529;53.244;10.414;2022-07-19T14:28:05;38.40;48.00
6978;DHT22;3529;53.244;10.414;2022-07-19T14:30:31;38.20;51.70
6978;DHT22;3529;53.244;10.414;2022-07-19T14:32:57;38.20;50.50
6978;DHT22;3529;53.244;10.414;2022-07-19T14:35:23;38.20;50.00
6978;DHT22;3529;53.244;10.414;2022-07-19T14:37:49;38.80;50.60
6978;DHT22;3529;53.244;10.414;2022-07-19T14:40:14;38.10;49.30
6978;DHT22;3529;53.244;10.414;2022-07-19T14:42:41;37.90;51.10
6978;DHT22;3529;53.244;10.414;2022-07-19T14:45:08;37.80;48.20
6978;DHT22;3529;53.244;10.414;2022-07-19T14:47:35;37.60;50.40
6978;DHT22;3529;53.244;10.414;2022-07-19T14:50:01;37.40;50.60
6978;DHT22;3529;53.244;10.414;2022-07-19T14:52:28;37.20;50.20
6978;DHT22;3529;53.244;10.414;2022-07-19T14:54:53;36.80;51.00
6978;DHT22;3529;53.244;10.414;2022-07-19T14:57:19;36.60;50.20
6978;DHT22;3529;53.244;10.414;2022-07-19T14:59:45;36.50;52.10
6978;DHT22;3529;53.244;10.414;2022-07-19T15:02:11;36.50;49.90
6978;DHT22;3529;53.244;10.414;2022-07-19T15:04:36;36.50;51.90
6978;DHT22;3529;53.244;10.414;2022-07-19T15:07:03;36.40;49.80
6978;DHT22;3529;53.244;10.414;2022-07-19T15:09:29;36.50;52.60
6978;DHT22;3529;53.244;10.414;2022-07-19T15:11:54;36.50;52.30
6978;DHT22;3529;53.244;10.414;2022-07-19T15:14:26;36.50;50.30
6978;DHT22;3529;53.244;10.414;2022-07-19T15:16:53;36.60;50.40
6978;DHT22;3529;53.244;10.414;2022-07-19T15:19:20;36.60;50.60
6978;DHT22;3529;53.244;10.414;2022-07-19T15:21:46;36.70;51.90
6978;DHT22;3529;53.244;10.414;2022-07-19T15:24:11;36.60;50.70
6978;DHT22;3529;53.244;10.414;2022-07-19T15:26:37;36.50;50.70
6978;DHT22;3529;53.244;10.414;2022-07-19T15:29:02;36.40;50.40
6978;DHT22;3529;53.244;10.414;2022-07-19T15:31:28;36.30;50.00
6978;DHT22;3529;53.244;10.414;2022-07-19T15:33:54;36.20;49.90
6978;DHT22;3529;53.244;10.414;2022-07-19T15:36:19;36.10;49.90
6978;DHT22;3529;53.244;10.414;2022-07-19T15:38:45;36.00;50.50
6978;DHT22;3529;53.244;10.414;2022-07-19T15:41:10;35.80;49.80
6978;DHT22;3529;53.244;10.414;2022-07-19T15:43:36;35.70;50.30
6978;DHT22;3529;53.244;10.414;2022-07-19T15:46:02;35.60;51.20
6978;DHT22;3529;53.244;10.414;2022-07-19T15:48:28;35.40;51.10
6978;DHT22;3529;53.244;10.414;2022-07-19T15:50:54;35.40;51.00
6978;DHT22;3529;53.244;10.414;2022-07-19T15:53:19;35.30;51.10
6978;DHT22;3529;53.244;10.414;2022-07-19T15:55:46;35.40;50.90
6978;DHT22;3529;53.244;10.414;2022-07-19T15:58:12;35.40;51.00
6978;DHT22;3529;53.244;10.414;2022-07-19T16:00:37;35.40;51.30
6978;DHT22;3529;53.244;10.414;2022-07-19T16:03:03;35.20;50.70
6978;DHT22;3529;53.244;10.414;2022-07-19T16:05:28;35.10;51.60
6978;DHT22;3529;53.244;10.414;2022-07-19T16:07:55;35.00;50.80